createdAt,value
2022-09-14T00:02:32.693Z,70.10
2022-09-14T00:06:04.187Z,70.24
2022-09-14T00:09:06.731Z,70.36
2022-09-14T00:11:51.204Z,70.26
2022-09-14T00:14:27.423Z,70.49
2022-09-14T00:17:03.538Z,70.61
2022-09-14T00:20:03.550Z,70.52
2022-09-14T00:22:31.309Z,70.61
2022-09-14T00:25:08.109Z,70.60
2022-09-14T00:27:44.579Z,70.58
2022-09-14T00:30:21.405Z,70.48
2022-09-14T00:32:57.408Z,70.55
2022-09-14T00:38:27.190Z,70.64
2022-09-14T00:41:05.307Z,70.91
2022-09-14T00:44:05.437Z,70.97
2022-09-14T00:47:06.521Z,71.06
2022-09-14T00:50:07.022Z,71.20
2022-09-14T00:53:07.509Z,71.32
2022-09-14T00:55:35.312Z,71.28
2022-09-14T00:58:20.856Z,71.33
2022-09-14T01:00:59.174Z,71.53
2022-09-14T01:06:47.192Z,71.44
2022-09-14T01:09:26.086Z,71.42
2022-09-14T01:12:20.448Z,71.76
2022-09-14T01:15:00.593Z,71.66
2022-09-14T01:17:48.969Z,71.62
2022-09-14T01:21:06.489Z,71.72
2022-09-14T01:24:07.292Z,71.66
2022-09-14T01:27:07.503Z,71.85
2022-09-14T01:30:16.662Z,71.80
2022-09-14T01:33:12.440Z,71.95
2022-09-14T01:35:55.511Z,71.96
2022-09-14T01:38:51.797Z,72.07
2022-09-14T01:41:31.432Z,72.35
2022-09-14T01:44:21.417Z,72.51
2022-09-14T01:47:03.707Z,72.36
2022-09-14T01:50:09.137Z,72.56
2022-09-14T01:53:09.125Z,72.77
2022-09-14T01:56:21.627Z,72.66
2022-09-14T01:59:05.932Z,72.79
2022-09-14T02:02:18.570Z,72.82
2022-09-14T02:05:01.163Z,72.84
2022-09-14T02:07:38.044Z,72.97
2022-09-14T02:10:29.257Z,73.07
2022-09-14T02:13:07.215Z,72.86
2022-09-14T02:15:36.284Z,72.79
2022-09-14T02:18:04.362Z,72.65
2022-09-14T02:20:39.817Z,72.87
2022-09-14T02:23:07.733Z,72.86
2022-09-14T02:25:36.495Z,72.80
2022-09-14T02:28:04.308Z,72.81
2022-09-14T02:30:49.403Z,72.82
2022-09-14T02:33:40.781Z,72.93
2022-09-14T02:36:16.653Z,72.77
2022-09-14T02:38:57.438Z,72.89
2022-09-14T02:41:59.107Z,72.84
2022-09-14T02:44:57.340Z,73.07
2022-09-14T02:48:02.517Z,73.19
2022-09-14T02:51:09.362Z,73.23
2022-09-14T02:54:38.796Z,73.06
2022-09-14T02:57:15.535Z,73.24
2022-09-14T02:59:54.030Z,73.30
2022-09-14T03:02:30.353Z,73.42
2022-09-14T03:05:06.655Z,73.51
2022-09-14T03:10:33.255Z,73.59
2022-09-14T03:13:09.401Z,73.68
2022-09-14T03:16:10.572Z,73.71
2022-09-14T03:19:12.378Z,73.77
2022-09-14T03:22:11.962Z,73.95
2022-09-14T03:25:12.633Z,74.11
2022-09-14T03:28:13.110Z,74.12
2022-09-14T03:31:13.283Z,73.93
2022-09-14T03:33:41.538Z,74.08
2022-09-14T03:36:29.844Z,74.10
2022-09-14T03:39:06.626Z,74.05
2022-09-14T03:41:42.396Z,73.88
2022-09-14T03:44:32.422Z,74.06
2022-09-14T03:47:08.729Z,73.95
2022-09-14T03:50:10.034Z,74.11
2022-09-14T03:53:10.086Z,74.01
2022-09-14T03:56:17.786Z,74.09
2022-09-14T03:58:54.520Z,74.00
2022-09-14T04:01:30.436Z,74.02
2022-09-14T04:04:07.930Z,73.99
2022-09-14T04:09:35.697Z,74.03
2022-09-14T04:12:12.716Z,73.94
2022-09-14T04:15:13.477Z,73.89
2022-09-14T04:17:42.142Z,74.06
2022-09-14T04:20:18.508Z,74.04
2022-09-14T04:22:56.534Z,74.12
2022-09-14T04:25:32.436Z,74.02
2022-09-14T04:28:20.030Z,73.94
2022-09-14T04:31:01.059Z,73.82
2022-09-14T04:33:38.488Z,73.90
2022-09-14T04:36:16.168Z,73.77
2022-09-14T04:39:16.705Z,73.83
2022-09-14T04:42:15.909Z,74.12
2022-09-14T04:44:43.489Z,73.94
2022-09-14T04:47:19.432Z,73.81
2022-09-14T04:52:37.505Z,73.76
2022-09-14T04:55:13.646Z,73.80
2022-09-14T04:58:14.193Z,73.91
2022-09-14T05:01:15.187Z,73.93
2022-09-14T05:04:15.344Z,73.72
2022-09-14T05:07:15.059Z,73.84
2022-09-14T05:10:15.138Z,73.70
2022-09-14T05:12:43.025Z,73.71
2022-09-14T05:16:42.254Z,73.66
2022-09-14T05:19:13.985Z,73.55
2022-09-14T05:22:15.508Z,73.72
2022-09-14T05:24:51.645Z,73.52
2022-09-14T05:27:27.681Z,73.63
2022-09-14T05:30:03.875Z,73.65
2022-09-14T05:32:40.654Z,73.71
2022-09-14T05:35:16.767Z,73.48
2022-09-14T05:38:17.386Z,73.74
2022-09-14T05:41:17.657Z,73.68
2022-09-14T05:44:17.774Z,73.44
2022-09-14T05:46:45.585Z,73.51
2022-09-14T05:49:21.619Z,73.60
2022-09-14T05:51:59.569Z,73.60
2022-09-14T05:54:35.584Z,73.68
2022-09-14T05:57:11.629Z,73.87
2022-09-14T05:59:47.637Z,73.72
2022-09-14T06:02:23.772Z,73.25
2022-09-14T06:05:00.648Z,73.51
2022-09-14T06:07:34.603Z,73.81
2022-09-14T06:13:17.388Z,73.71
2022-09-14T06:16:18.892Z,73.45
2022-09-14T06:19:19.797Z,73.37
2022-09-14T06:22:20.068Z,73.63
2022-09-14T06:25:19.850Z,73.53
2022-09-14T06:28:20.213Z,73.40
2022-09-14T06:31:22.603Z,73.06
2022-09-14T06:36:42.178Z,72.89
2022-09-14T06:39:18.222Z,73.00
2022-09-14T06:42:18.028Z,72.91
2022-09-14T06:45:18.964Z,72.79
2022-09-14T06:48:19.117Z,72.29
2022-09-14T06:51:20.185Z,72.44
2022-09-14T06:54:19.880Z,72.32
2022-09-14T06:56:47.705Z,71.99
2022-09-14T07:01:19.890Z,71.89
2022-09-14T07:04:20.177Z,71.79
2022-09-14T07:07:20.318Z,71.81
2022-09-14T07:10:20.397Z,71.90
2022-09-14T07:13:20.364Z,71.54
2022-09-14T07:16:20.683Z,71.49
2022-09-14T07:19:21.358Z,71.05
2022-09-14T07:21:50.310Z,70.95
2022-09-14T07:24:26.474Z,70.87
2022-09-14T07:27:02.779Z,70.75
2022-09-14T07:29:39.408Z,70.44
2022-09-14T07:32:15.512Z,69.94
2022-09-14T07:34:51.535Z,70.04
2022-09-14T07:37:27.476Z,69.73
2022-09-14T07:40:03.956Z,69.71
2022-09-14T07:42:38.722Z,68.93
2022-09-14T07:47:49.706Z,68.78
2022-09-14T07:50:27.055Z,68.95
2022-09-14T07:53:05.171Z,68.52
2022-09-14T07:55:41.660Z,68.17
2022-09-14T07:58:09.411Z,67.80
2022-09-14T08:03:10.711Z,66.78
2022-09-14T08:05:38.507Z,66.46
2022-09-14T08:08:15.141Z,66.07
2022-09-14T08:10:51.728Z,65.88
2022-09-14T08:13:19.859Z,65.68
2022-09-14T08:18:11.952Z,64.61
2022-09-14T08:20:47.998Z,64.18
2022-09-14T08:23:25.335Z,65.40
2022-09-14T08:26:26.311Z,64.86
2022-09-14T08:29:26.166Z,62.38
2022-09-14T08:32:02.178Z,59.56
2022-09-14T08:34:37.957Z,57.67
2022-09-14T08:37:14.195Z,56.18
2022-09-14T08:39:51.599Z,54.64
2022-09-14T08:45:27.564Z,53.88
2022-09-14T08:47:55.632Z,54.06
2022-09-14T08:50:46.408Z,51.49
2022-09-14T08:53:22.782Z,49.02
2022-09-14T08:56:13.735Z,48.39
2022-09-14T08:59:09.167Z,46.01
2022-09-14T09:01:49.550Z,44.82
2022-09-14T09:04:46.750Z,44.37
2022-09-14T09:07:36.994Z,43.81
2022-09-14T09:10:13.989Z,43.67
2022-09-14T09:13:19.631Z,43.52
2022-09-14T09:18:48.143Z,43.65
2022-09-14T09:21:29.253Z,42.33
2022-09-14T09:25:08.603Z,40.61
2022-09-14T09:27:44.531Z,38.75
2022-09-14T09:30:20.621Z,38.21
2022-09-14T09:32:57.027Z,37.19
2022-09-14T09:35:46.479Z,36.21
2022-09-14T09:38:32.425Z,34.51
2022-09-14T09:41:07.523Z,33.86
2022-09-14T09:43:48.810Z,33.33
2022-09-14T09:46:17.579Z,33.33
2022-09-14T09:48:54.205Z,33.16
2022-09-14T09:51:32.005Z,33.19
2022-09-14T09:54:16.481Z,33.88
2022-09-14T09:56:55.213Z,33.87
2022-09-14T09:59:38.055Z,33.47
2022-09-14T10:02:22.746Z,32.66
2022-09-14T10:05:22.710Z,32.21
2022-09-14T10:10:51.477Z,29.50
2022-09-14T10:13:38.819Z,28.13
2022-09-14T10:16:17.298Z,26.95
2022-09-14T10:18:53.990Z,25.35
2022-09-14T10:21:24.320Z,23.43
2022-09-14T10:24:33.308Z,22.61
2022-09-14T10:27:38.315Z,21.19
2022-09-14T10:30:25.797Z,20.88
2022-09-14T10:33:22.970Z,20.25
2022-09-14T10:36:29.676Z,19.49
2022-09-14T10:39:32.623Z,19.46
2022-09-14T10:42:35.683Z,19.41
2022-09-14T10:45:15.515Z,19.22
2022-09-14T10:47:56.131Z,19.07
2022-09-14T10:50:50.166Z,19.24
2022-09-14T10:53:32.363Z,19.53
2022-09-14T10:56:44.469Z,19.94
2022-09-14T10:59:36.929Z,20.52
2022-09-14T11:02:50.982Z,21.42
2022-09-14T11:05:22.838Z,22.43
2022-09-14T11:07:59.534Z,22.98
2022-09-14T11:11:00.771Z,23.49
2022-09-14T11:13:58.020Z,24.29
2022-09-14T11:16:34.235Z,24.98
2022-09-14T11:19:40.501Z,25.40
2022-09-14T11:22:28.681Z,26.34
2022-09-14T11:25:59.480Z,26.77
2022-09-14T11:28:49.983Z,27.57
2022-09-14T11:31:40.080Z,28.08
2022-09-14T11:34:24.606Z,28.59
2022-09-14T11:40:01.999Z,29.88
2022-09-14T11:43:01.385Z,30.17
2022-09-14T11:45:44.999Z,30.53
2022-09-14T11:48:48.063Z,30.39
2022-09-14T11:51:31.064Z,30.37
2022-09-14T11:54:31.573Z,30.84
2022-09-14T11:57:32.354Z,31.45
2022-09-14T12:00:50.817Z,31.37
2022-09-14T12:04:04.679Z,31.46
2022-09-14T12:06:56.689Z,31.71
2022-09-14T12:09:39.822Z,31.41
2022-09-14T12:12:31.279Z,31.38
2022-09-14T12:15:41.010Z,31.53
2022-09-14T12:18:22.750Z,31.88
2022-09-14T12:21:22.981Z,32.38
2022-09-14T12:23:57.921Z,32.53
2022-09-14T12:29:32.767Z,32.84
2022-09-14T12:32:43.309Z,32.99
2022-09-14T12:35:45.122Z,33.10
2022-09-14T12:38:30.798Z,33.32
2022-09-14T12:41:36.598Z,33.64
2022-09-14T12:44:37.535Z,33.80
2022-09-14T12:47:37.890Z,34.08
2022-09-14T12:50:34.583Z,34.16
2022-09-14T12:53:23.425Z,34.26
2022-09-14T12:56:03.761Z,34.32
2022-09-14T12:58:52.131Z,34.69
2022-09-14T13:01:34.370Z,35.05
2022-09-14T13:04:34.944Z,35.19
2022-09-14T13:07:36.315Z,35.32
2022-09-14T13:10:37.068Z,35.78
2022-09-14T13:13:34.230Z,36.08
2022-09-14T13:16:04.430Z,36.22
2022-09-14T13:18:40.569Z,36.50
2022-09-14T13:21:45.826Z,36.61
2022-09-14T13:24:31.738Z,36.91
2022-09-14T13:27:01.210Z,37.07
2022-09-14T13:29:37.545Z,37.44
2022-09-14T13:32:44.174Z,37.53
2022-09-14T13:35:25.365Z,37.92
2022-09-14T13:38:29.746Z,37.96
2022-09-14T13:41:28.400Z,38.23
2022-09-14T13:44:06.106Z,38.39
2022-09-14T13:46:42.761Z,38.60
2022-09-14T13:49:21.610Z,38.93
2022-09-14T13:52:59.978Z,38.74
2022-09-14T13:55:31.464Z,39.24
2022-09-14T13:58:04.954Z,39.42
2022-09-14T14:02:32.255Z,39.46
2022-09-14T14:05:29.182Z,39.65
2022-09-14T14:08:28.175Z,39.74
2022-09-14T14:11:06.435Z,39.95
2022-09-14T14:13:42.302Z,39.88
2022-09-14T14:16:42.564Z,39.96
2022-09-14T14:19:43.799Z,39.84
2022-09-14T14:22:54.683Z,40.17
2022-09-14T14:28:22.805Z,40.04
2022-09-14T14:31:07.729Z,40.20
2022-09-14T14:33:50.985Z,40.32
2022-09-14T14:36:28.502Z,40.49
2022-09-14T14:38:57.371Z,40.36
2022-09-14T14:43:42.828Z,40.33
2022-09-14T14:46:42.934Z,40.43
2022-09-14T14:49:43.050Z,40.58
2022-09-14T14:52:11.613Z,40.83
2022-09-14T14:54:48.191Z,41.05
2022-09-14T14:57:25.852Z,41.18
2022-09-14T15:00:02.305Z,41.48
2022-09-14T15:02:39.057Z,41.50
2022-09-14T15:05:27.245Z,41.74
2022-09-14T15:08:04.003Z,42.00
2022-09-14T15:10:40.833Z,42.21
2022-09-14T15:13:41.045Z,42.41
2022-09-14T15:16:41.117Z,42.53
2022-09-14T15:19:42.197Z,42.65
2022-09-14T15:22:42.493Z,42.67
2022-09-14T15:25:11.749Z,43.15
2022-09-14T15:29:32.280Z,43.28
2022-09-14T15:32:08.630Z,43.51
2022-09-14T15:34:45.580Z,43.62
2022-09-14T15:37:46.531Z,44.04
2022-09-14T15:40:14.491Z,44.39
2022-09-14T15:43:00.290Z,44.38
2022-09-14T15:45:36.609Z,44.59
2022-09-14T15:51:10.368Z,45.25
2022-09-14T15:53:47.757Z,45.54
2022-09-14T15:56:50.951Z,45.78
2022-09-14T15:59:28.592Z,45.83
2022-09-14T16:02:04.730Z,46.16
2022-09-14T16:04:40.492Z,46.36
2022-09-14T16:07:16.600Z,46.51
2022-09-14T16:10:30.381Z,46.52
2022-09-14T16:13:07.302Z,46.91
2022-09-14T16:15:44.258Z,47.11
2022-09-14T16:18:44.419Z,47.23
2022-09-14T16:21:15.392Z,47.43
2022-09-14T16:25:41.966Z,47.79
2022-09-14T16:31:12.044Z,48.48
2022-09-14T16:33:51.182Z,48.72
2022-09-14T16:36:31.415Z,48.95
2022-09-14T16:39:11.977Z,49.07
2022-09-14T16:41:48.587Z,49.26
2022-09-14T16:44:49.231Z,49.58
2022-09-14T16:47:48.997Z,49.60
2022-09-14T16:50:52.377Z,49.96
2022-09-14T16:53:33.473Z,50.47
2022-09-14T16:56:09.202Z,50.57
2022-09-14T17:00:15.131Z,51.20
2022-09-14T17:02:52.365Z,51.28
2022-09-14T17:05:31.020Z,51.59
2022-09-14T17:08:06.914Z,51.84
2022-09-14T17:10:37.862Z,52.05
2022-09-14T17:15:44.006Z,52.46
2022-09-14T17:18:11.752Z,52.55
2022-09-14T17:20:59.882Z,52.64
2022-09-14T17:23:36.610Z,52.93
2022-09-14T17:26:06.385Z,53.17
2022-09-14T17:28:47.367Z,53.22
2022-09-14T17:31:48.051Z,53.56
2022-09-14T17:34:47.969Z,53.64
2022-09-14T17:37:15.765Z,53.94
2022-09-14T17:39:52.640Z,54.01
2022-09-14T17:42:32.005Z,54.29
2022-09-14T17:45:08.680Z,54.40
2022-09-14T17:47:45.986Z,54.48
2022-09-14T17:50:13.772Z,54.79
2022-09-14T17:52:51.048Z,54.96
2022-09-14T17:55:19.247Z,54.97
2022-09-14T17:57:46.941Z,55.19
2022-09-14T18:00:15.249Z,55.49
2022-09-14T18:02:52.349Z,55.67
2022-09-14T18:05:20.874Z,55.67
2022-09-14T18:07:49.635Z,55.89
2022-09-14T18:10:18.737Z,56.15
2022-09-14T18:12:54.972Z,56.36
2022-09-14T18:15:31.315Z,56.45
2022-09-14T18:18:07.929Z,56.55
2022-09-14T18:20:44.006Z,56.72
2022-09-14T18:23:19.921Z,56.87
2022-09-14T18:25:56.455Z,57.13
2022-09-14T18:28:36.659Z,57.20
2022-09-14T18:31:10.914Z,57.30
2022-09-14T18:35:24.111Z,57.59
2022-09-14T18:38:00.933Z,57.72
2022-09-14T18:40:38.395Z,57.80
2022-09-14T18:43:16.819Z,58.06
2022-09-14T18:45:44.953Z,58.02
2022-09-14T18:51:04.557Z,58.35
2022-09-14T18:53:31.324Z,58.61
2022-09-14T18:56:11.317Z,58.65
2022-09-14T18:58:40.843Z,58.94
2022-09-14T19:01:07.875Z,58.85
2022-09-14T19:03:42.965Z,59.02
2022-09-14T19:06:18.573Z,59.13
2022-09-14T19:08:54.866Z,59.19
2022-09-14T19:11:23.087Z,59.32
2022-09-14T19:13:59.789Z,59.51
2022-09-14T19:16:36.783Z,59.50
2022-09-14T19:19:13.963Z,59.62
2022-09-14T19:21:50.178Z,59.78
2022-09-14T19:24:17.200Z,60.05
2022-09-14T19:26:52.432Z,59.95
2022-09-14T19:29:51.844Z,60.18
2022-09-14T19:32:50.771Z,60.37
2022-09-14T19:35:17.189Z,60.45
2022-09-14T19:37:52.261Z,60.55
2022-09-14T19:40:36.851Z,60.76
2022-09-14T19:43:03.212Z,60.84
2022-09-14T19:47:42.610Z,60.86
2022-09-14T19:50:18.878Z,60.95
2022-09-14T19:52:55.707Z,61.13
2022-09-14T19:55:55.820Z,61.26
2022-09-14T19:58:26.175Z,61.21
2022-09-14T20:01:13.672Z,61.51
2022-09-14T20:03:50.392Z,61.67
2022-09-14T20:06:47.192Z,61.67
2022-09-14T20:09:24.054Z,61.70
2022-09-14T20:12:01.157Z,61.90
2022-09-14T20:14:39.852Z,62.02
2022-09-14T20:17:15.880Z,62.02
2022-09-14T20:19:51.893Z,62.15
2022-09-14T20:22:19.776Z,62.17
2022-09-14T20:26:56.828Z,62.38
2022-09-14T20:29:35.364Z,62.52
2022-09-14T20:32:12.430Z,62.63
2022-09-14T20:34:48.192Z,62.70
2022-09-14T20:37:15.893Z,62.75
2022-09-14T20:41:50.221Z,62.90
2022-09-14T20:44:26.524Z,63.00
2022-09-14T20:47:03.350Z,62.94
2022-09-14T20:49:39.332Z,63.12
2022-09-14T20:52:15.301Z,63.13
2022-09-14T20:54:51.333Z,63.36
2022-09-14T20:57:27.315Z,63.26
2022-09-14T21:00:03.629Z,63.39
2022-09-14T21:02:40.862Z,63.48
2022-09-14T21:05:09.026Z,63.62
2022-09-14T21:07:55.998Z,63.64
2022-09-14T21:10:56.018Z,63.80
2022-09-14T21:13:56.690Z,63.92
2022-09-14T21:16:46.162Z,64.00
2022-09-14T21:19:25.106Z,63.96
2022-09-14T21:22:01.404Z,64.01
2022-09-14T21:25:02.094Z,64.08
2022-09-14T21:32:27.306Z,64.25
2022-09-14T21:35:04.321Z,64.36
2022-09-14T21:38:03.851Z,64.37
2022-09-14T21:41:05.550Z,64.43
2022-09-14T21:43:44.741Z,64.52
2022-09-14T21:46:21.965Z,64.53
2022-09-14T21:48:58.230Z,64.67
2022-09-14T21:51:59.292Z,64.71
2022-09-14T21:55:00.012Z,64.74
2022-09-14T21:57:59.775Z,64.80
2022-09-14T22:01:01.064Z,64.82
2022-09-14T22:04:02.364Z,65.02
2022-09-14T22:06:31.481Z,64.99
2022-09-14T22:10:51.032Z,65.08
2022-09-14T22:13:27.917Z,65.17
2022-09-14T22:16:11.926Z,65.20
2022-09-14T22:18:50.823Z,65.22
2022-09-14T22:21:19.099Z,65.30
2022-09-14T22:25:53.627Z,65.14
2022-09-14T22:28:30.221Z,65.37
2022-09-14T22:31:07.417Z,65.35
2022-09-14T22:33:46.212Z,65.29
2022-09-14T22:36:17.604Z,65.44
2022-09-14T22:38:46.668Z,65.58
2022-09-14T22:41:26.149Z,65.53
2022-09-14T22:44:04.758Z,65.55
2022-09-14T22:46:33.046Z,65.70
2022-09-14T22:49:00.930Z,65.62
2022-09-14T22:51:29.502Z,65.74
2022-09-14T22:53:57.900Z,65.73
2022-09-14T22:56:37.019Z,65.69
2022-09-14T22:59:07.084Z,65.78
2022-09-14T23:01:43.523Z,65.83
2022-09-14T23:04:12.831Z,65.98
2022-09-14T23:06:45.847Z,66.00
2022-09-14T23:09:16.241Z,65.86
2022-09-14T23:11:44.685Z,65.91
2022-09-14T23:14:22.199Z,65.94
2022-09-14T23:16:58.477Z,65.99
2022-09-14T23:19:34.304Z,66.12
2022-09-14T23:22:11.091Z,66.19
2022-09-14T23:24:48.132Z,66.27
2022-09-14T23:27:24.404Z,66.24
2022-09-14T23:30:00.479Z,66.39
2022-09-14T23:32:36.346Z,66.28
2022-09-14T23:35:26.769Z,66.35
2022-09-14T23:38:03.314Z,66.52
2022-09-14T23:40:31.304Z,66.43
2022-09-14T23:43:07.497Z,66.44
2022-09-14T23:46:07.265Z,66.58
2022-09-14T23:48:44.043Z,66.62
2022-09-14T23:51:12.164Z,66.45
2022-09-14T23:56:09.332Z,66.69
2022-09-14T23:59:09.908Z,66.77
